createdAt,value
2018-03-16T00:01:32.073Z,4.72
2018-03-16T00:03:58.364Z,4.71
2018-03-16T00:06:24.476Z,4.70
2018-03-16T00:08:50.530Z,4.72
2018-03-16T00:11:16.604Z,4.73
2018-03-16T00:13:42.666Z,4.73
2018-03-16T00:16:08.740Z,4.71
2018-03-16T00:18:34.816Z,4.67
2018-03-16T00:21:00.907Z,4.64
2018-03-16T00:23:26.938Z,4.64
2018-03-16T00:25:53.030Z,4.65
2018-03-16T00:28:19.140Z,4.59
2018-03-16T00:30:45.153Z,4.62
2018-03-16T00:33:11.208Z,4.58
2018-03-16T00:35:37.417Z,4.57
2018-03-16T00:38:03.477Z,4.52
2018-03-16T00:40:29.551Z,4.52
2018-03-16T00:42:56.025Z,4.48
2018-03-16T00:45:22.126Z,4.43
2018-03-16T00:47:48.146Z,4.45
2018-03-16T00:50:14.179Z,4.53
2018-03-16T00:52:40.240Z,4.50
2018-03-16T00:55:06.325Z,4.46
2018-03-16T00:57:32.364Z,4.53
2018-03-16T00:59:58.766Z,4.47
2018-03-16T01:02:24.802Z,4.46
2018-03-16T01:04:50.928Z,4.45
2018-03-16T01:07:17.066Z,4.49
2018-03-16T01:09:43.103Z,4.41
2018-03-16T01:12:09.160Z,4.40
2018-03-16T01:14:35.202Z,4.41
2018-03-16T01:17:01.234Z,4.47
2018-03-16T01:19:27.346Z,4.42
2018-03-16T01:21:53.402Z,4.40
2018-03-16T01:24:19.473Z,4.34
2018-03-16T01:26:45.507Z,4.34
2018-03-16T01:29:11.612Z,4.33
2018-03-16T01:31:37.699Z,4.27
2018-03-16T01:34:03.897Z,4.26
2018-03-16T01:36:29.948Z,4.24
2018-03-16T01:38:56.129Z,4.31
2018-03-16T01:41:22.193Z,4.30
2018-03-16T01:43:48.240Z,4.25
2018-03-16T01:46:14.346Z,4.27
2018-03-16T01:48:40.376Z,4.27
2018-03-16T01:51:06.715Z,4.25
2018-03-16T01:53:32.767Z,4.18
2018-03-16T01:55:58.795Z,4.24
2018-03-16T01:58:24.869Z,4.31
2018-03-16T02:00:50.901Z,4.27
2018-03-16T02:03:17.051Z,4.22
2018-03-16T02:05:43.327Z,4.20
2018-03-16T02:08:09.408Z,4.18
2018-03-16T02:10:35.446Z,4.22
2018-03-16T02:13:01.507Z,4.21
2018-03-16T02:15:27.634Z,4.18
2018-03-16T02:17:53.694Z,4.19
2018-03-16T02:20:19.709Z,4.15
2018-03-16T02:22:45.862Z,4.10
2018-03-16T02:25:11.924Z,4.13
2018-03-16T02:27:37.952Z,4.12
2018-03-16T02:30:03.998Z,4.11
2018-03-16T02:32:30.067Z,4.11
2018-03-16T02:34:56.177Z,4.16
2018-03-16T02:37:22.215Z,4.17
2018-03-16T02:39:48.369Z,4.15
2018-03-16T02:42:14.457Z,4.04
2018-03-16T02:44:40.503Z,4.05
2018-03-16T02:47:06.666Z,4.04
2018-03-16T02:49:32.670Z,4.06
2018-03-16T02:51:58.703Z,4.06
2018-03-16T02:54:24.806Z,4.04
2018-03-16T02:56:51.016Z,3.97
2018-03-16T02:59:17.099Z,4.00
2018-03-16T03:01:43.150Z,4.02
2018-03-16T03:04:09.236Z,4.01
2018-03-16T03:06:35.305Z,4.03
2018-03-16T03:09:01.339Z,3.98
2018-03-16T03:11:27.391Z,3.97
2018-03-16T03:13:53.791Z,3.96
2018-03-16T03:16:19.817Z,3.99
2018-03-16T03:18:45.853Z,3.98
2018-03-16T03:21:12.078Z,4.01
2018-03-16T03:23:38.132Z,3.89
2018-03-16T03:26:04.187Z,3.93
2018-03-16T03:28:30.206Z,3.91
2018-03-16T03:30:56.283Z,3.87
2018-03-16T03:33:22.402Z,3.92
2018-03-16T03:35:48.452Z,3.95
2018-03-16T03:38:14.628Z,3.92
2018-03-16T03:40:40.724Z,3.93
2018-03-16T03:43:06.766Z,3.97
2018-03-16T03:45:32.797Z,3.94
2018-03-16T03:47:58.835Z,3.93
2018-03-16T03:50:24.956Z,3.96
2018-03-16T03:52:51.043Z,4.03
2018-03-16T03:55:17.098Z,3.98
2018-03-16T03:57:43.127Z,3.96
2018-03-16T04:00:09.185Z,3.88
2018-03-16T04:02:35.198Z,3.92
2018-03-16T04:05:01.311Z,3.94
2018-03-16T04:07:27.343Z,3.97
2018-03-16T04:09:53.390Z,3.89
2018-03-16T04:12:19.568Z,3.89
2018-03-16T04:14:45.628Z,3.91
2018-03-16T04:17:11.669Z,3.88
2018-03-16T04:19:37.717Z,3.89
2018-03-16T04:22:04.141Z,3.85
2018-03-16T04:24:30.284Z,3.86
2018-03-16T04:26:56.323Z,3.94
2018-03-16T04:29:22.380Z,3.88
2018-03-16T04:31:48.462Z,3.88
2018-03-16T04:34:14.508Z,3.89
2018-03-16T04:36:40.565Z,3.81
2018-03-16T04:39:06.858Z,3.78
2018-03-16T04:41:32.988Z,3.77
2018-03-16T04:43:59.050Z,3.75
2018-03-16T04:46:25.202Z,3.64
2018-03-16T04:48:51.276Z,3.71
2018-03-16T04:51:17.325Z,3.59
2018-03-16T04:53:43.373Z,3.64
2018-03-16T04:56:09.805Z,3.59
2018-03-16T04:58:35.843Z,3.51
2018-03-16T05:01:01.899Z,3.49
2018-03-16T05:03:28.035Z,3.49
2018-03-16T05:05:54.081Z,3.42
2018-03-16T05:08:20.356Z,3.46
2018-03-16T05:10:46.419Z,3.39
2018-03-16T05:13:12.484Z,3.43
2018-03-16T05:15:38.584Z,3.42
2018-03-16T05:18:04.586Z,3.44
2018-03-16T05:20:30.687Z,3.30
2018-03-16T05:22:56.778Z,3.23
2018-03-16T05:25:22.810Z,3.32
2018-03-16T05:27:48.874Z,3.32
2018-03-16T05:30:14.924Z,3.32
2018-03-16T05:32:41.015Z,3.29
2018-03-16T05:35:07.062Z,3.31
2018-03-16T05:37:33.122Z,3.25
2018-03-16T05:39:59.155Z,3.27
2018-03-16T05:42:25.234Z,3.26
2018-03-16T05:44:51.421Z,3.24
2018-03-16T05:47:17.507Z,3.14
2018-03-16T05:49:43.577Z,3.05
2018-03-16T05:52:09.797Z,3.12
2018-03-16T05:54:35.834Z,3.12
2018-03-16T05:57:02.041Z,3.04
2018-03-16T05:59:28.116Z,2.93
2018-03-16T06:01:54.155Z,3.11
2018-03-16T06:04:20.222Z,3.04
2018-03-16T06:06:46.242Z,3.08
2018-03-16T06:09:12.327Z,3.03
2018-03-16T06:11:38.392Z,2.92
2018-03-16T06:14:04.439Z,2.97
2018-03-16T06:16:30.506Z,2.88
2018-03-16T06:18:56.542Z,2.88
2018-03-16T06:21:22.584Z,2.93
2018-03-16T06:23:48.668Z,2.90
2018-03-16T06:26:14.716Z,2.84
2018-03-16T06:28:40.802Z,2.75
2018-03-16T06:31:06.833Z,2.76
2018-03-16T06:33:32.856Z,2.89
2018-03-16T06:35:59.072Z,2.71
2018-03-16T06:38:25.156Z,2.66
2018-03-16T06:40:51.216Z,2.69
2018-03-16T06:43:17.266Z,2.70
2018-03-16T06:45:43.315Z,2.68
2018-03-16T06:48:09.419Z,2.64
2018-03-16T06:50:35.451Z,2.67
2018-03-16T06:53:01.505Z,2.54
2018-03-16T06:55:27.550Z,2.62
2018-03-16T06:57:53.636Z,2.54
2018-03-16T07:00:19.665Z,2.56
2018-03-16T07:02:45.782Z,2.48
2018-03-16T07:05:11.889Z,2.39
2018-03-16T07:07:37.923Z,2.34
2018-03-16T07:10:03.966Z,2.32
2018-03-16T07:12:30.031Z,2.42
2018-03-16T07:14:56.070Z,2.32
2018-03-16T07:17:22.121Z,2.41
2018-03-16T07:19:48.194Z,2.30
2018-03-16T07:22:14.226Z,2.27
2018-03-16T07:24:40.307Z,2.27
2018-03-16T07:27:06.342Z,2.22
2018-03-16T07:29:32.394Z,2.19
2018-03-16T07:31:58.456Z,2.16
2018-03-16T07:34:24.552Z,2.22
2018-03-16T07:36:50.646Z,2.17
2018-03-16T07:39:16.674Z,2.11
2018-03-16T07:41:42.739Z,2.12
2018-03-16T07:44:08.905Z,2.10
2018-03-16T07:46:34.962Z,2.10
2018-03-16T07:49:01.020Z,2.02
2018-03-16T07:51:27.224Z,2.02
2018-03-16T07:53:53.258Z,1.94
2018-03-16T07:56:19.360Z,2.00
2018-03-16T07:58:46.368Z,2.01
2018-03-16T08:01:12.397Z,1.99
2018-03-16T08:03:38.630Z,2.00
2018-03-16T08:06:04.695Z,2.02
2018-03-16T08:08:30.738Z,1.96
2018-03-16T08:10:56.813Z,1.96
2018-03-16T08:13:23.207Z,1.94
2018-03-16T08:15:49.214Z,1.91
2018-03-16T08:18:15.245Z,1.92
2018-03-16T08:20:41.464Z,2.04
2018-03-16T08:23:07.488Z,1.95
2018-03-16T08:25:33.715Z,1.98
2018-03-16T08:27:59.945Z,2.01
2018-03-16T08:30:26.019Z,1.99
2018-03-16T08:32:52.103Z,2.02
2018-03-16T08:35:18.158Z,2.00
2018-03-16T08:37:44.235Z,2.01
2018-03-16T08:40:10.265Z,2.02
2018-03-16T08:42:51.221Z,1.96
2018-03-16T08:45:17.230Z,1.99
2018-03-16T08:47:43.493Z,1.97
2018-03-16T08:50:09.544Z,1.87
2018-03-16T08:52:35.597Z,1.95
2018-03-16T08:55:01.634Z,1.91
2018-03-16T08:57:27.664Z,1.96
2018-03-16T08:59:53.717Z,1.98
2018-03-16T09:02:19.839Z,1.97
2018-03-16T09:04:45.938Z,1.92
2018-03-16T09:07:12.040Z,1.98
2018-03-16T09:09:38.304Z,1.96
2018-03-16T09:12:04.336Z,1.95
2018-03-16T09:14:30.473Z,2.00
2018-03-16T09:16:56.516Z,1.99
2018-03-16T09:19:22.583Z,2.04
2018-03-16T09:21:48.622Z,1.98
2018-03-16T09:24:14.807Z,2.10
2018-03-16T09:26:40.873Z,2.11
2018-03-16T09:29:07.491Z,2.09
2018-03-16T09:31:33.538Z,2.12
2018-03-16T09:33:59.685Z,2.13
2018-03-16T09:36:25.776Z,2.02
2018-03-16T09:38:51.914Z,1.98
2018-03-16T09:41:18.211Z,1.98
2018-03-16T09:43:44.259Z,2.09
2018-03-16T09:46:10.308Z,2.02
2018-03-16T09:48:36.412Z,2.05
2018-03-16T09:51:02.448Z,1.96
2018-03-16T09:53:28.870Z,1.85
2018-03-16T09:55:54.930Z,1.93
2018-03-16T09:58:21.165Z,1.95
2018-03-16T10:00:47.272Z,1.87
2018-03-16T10:03:13.339Z,1.83
2018-03-16T10:05:39.419Z,1.82
2018-03-16T10:08:05.458Z,1.92
2018-03-16T10:10:31.647Z,1.82
2018-03-16T10:12:57.744Z,1.86
2018-03-16T10:15:23.847Z,1.86
2018-03-16T10:17:49.906Z,1.80
2018-03-16T10:20:15.965Z,1.89
2018-03-16T10:22:42.017Z,1.86
2018-03-16T10:25:08.036Z,1.95
2018-03-16T10:27:34.098Z,1.95
2018-03-16T10:30:00.191Z,1.96
2018-03-16T10:32:26.317Z,2.01
2018-03-16T10:34:52.327Z,2.01
2018-03-16T10:37:18.365Z,1.84
2018-03-16T10:39:44.541Z,1.86
2018-03-16T10:42:10.604Z,1.78
2018-03-16T10:44:36.669Z,1.64
2018-03-16T10:47:02.728Z,1.68
2018-03-16T10:49:28.797Z,1.70
2018-03-16T10:51:54.897Z,1.76
2018-03-16T10:54:20.958Z,1.76
2018-03-16T10:56:47.108Z,1.76
2018-03-16T10:59:13.173Z,1.78
2018-03-16T11:01:45.297Z,1.70
2018-03-16T11:04:13.359Z,1.65
2018-03-16T11:06:39.415Z,1.61
2018-03-16T11:09:05.501Z,1.56
2018-03-16T11:11:31.573Z,1.54
2018-03-16T11:13:57.628Z,1.58
2018-03-16T11:16:23.703Z,1.44
2018-03-16T11:18:49.760Z,1.50
2018-03-16T11:21:15.808Z,1.44
2018-03-16T11:23:41.849Z,1.49
2018-03-16T11:26:08.043Z,1.52
2018-03-16T11:28:34.079Z,1.54
2018-03-16T11:31:00.132Z,1.56
2018-03-16T11:33:26.394Z,1.58
2018-03-16T11:35:52.484Z,1.61
2018-03-16T11:38:18.539Z,1.56
2018-03-16T11:40:44.646Z,1.57
2018-03-16T11:43:10.705Z,1.64
2018-03-16T11:45:36.742Z,1.60
2018-03-16T11:48:02.956Z,1.49
2018-03-16T11:50:28.999Z,1.55
2018-03-16T11:52:55.689Z,1.49
2018-03-16T11:55:21.802Z,1.42
2018-03-16T11:57:48.057Z,1.40
2018-03-16T12:00:14.201Z,1.42
2018-03-16T12:02:40.536Z,1.42
2018-03-16T12:05:06.693Z,1.42
2018-03-16T12:07:32.698Z,1.28
2018-03-16T12:09:58.855Z,1.21
2018-03-16T12:12:24.934Z,1.20
2018-03-16T12:14:51.010Z,1.12
2018-03-16T12:17:17.059Z,1.06
2018-03-16T12:19:43.109Z,1.09
2018-03-16T12:22:09.125Z,1.08
2018-03-16T12:24:35.160Z,1.05
2018-03-16T12:27:01.253Z,1.05
2018-03-16T12:29:27.277Z,0.94
2018-03-16T12:31:53.383Z,1.02
2018-03-16T12:34:34.311Z,0.97
2018-03-16T12:37:00.693Z,1.02
2018-03-16T12:39:26.742Z,1.03
2018-03-16T12:41:52.817Z,1.06
2018-03-16T12:44:18.905Z,1.03
2018-03-16T12:46:44.934Z,1.02
2018-03-16T12:49:11.170Z,1.01
2018-03-16T12:51:42.191Z,0.96
2018-03-16T12:54:03.431Z,0.96
2018-03-16T12:56:29.528Z,0.93
2018-03-16T12:58:55.582Z,0.95
2018-03-16T13:01:21.656Z,0.83
2018-03-16T13:03:47.731Z,0.87
2018-03-16T13:06:13.978Z,0.78
2018-03-16T13:08:40.028Z,0.86
2018-03-16T13:11:06.130Z,0.81
2018-03-16T13:13:32.166Z,0.81
2018-03-16T13:15:58.411Z,0.87
2018-03-16T13:18:24.474Z,0.80
2018-03-16T13:20:50.513Z,0.82
2018-03-16T13:23:16.629Z,0.76
2018-03-16T13:25:42.667Z,0.73
2018-03-16T13:28:08.770Z,0.70
2018-03-16T13:33:28.171Z,0.67
2018-03-16T13:35:54.246Z,0.62
2018-03-16T13:38:20.303Z,0.66
2018-03-16T13:40:46.581Z,0.67
2018-03-16T13:43:12.679Z,0.76
2018-03-16T13:45:38.755Z,0.62
2018-03-16T13:48:04.813Z,0.65
2018-03-16T13:50:31.076Z,0.76
2018-03-16T13:52:57.133Z,0.75
2018-03-16T13:55:23.768Z,0.78
2018-03-16T13:57:49.821Z,0.70
2018-03-16T14:00:15.898Z,0.65
2018-03-16T14:02:41.935Z,0.73
2018-03-16T14:05:08.028Z,0.69
2018-03-16T14:07:34.072Z,0.77
2018-03-16T14:10:00.133Z,0.72
2018-03-16T14:12:26.308Z,0.69
2018-03-16T14:14:52.397Z,0.60
2018-03-16T14:17:18.463Z,0.64
2018-03-16T14:19:44.549Z,0.64
2018-03-16T14:22:10.883Z,0.59
2018-03-16T14:24:36.939Z,0.58
2018-03-16T14:27:03.026Z,0.58
2018-03-16T14:29:29.063Z,0.49
2018-03-16T14:31:55.131Z,0.44
2018-03-16T14:34:21.332Z,0.55
2018-03-16T14:36:47.366Z,0.51
2018-03-16T14:39:13.406Z,0.56
2018-03-16T14:41:39.472Z,0.45
2018-03-16T14:44:05.587Z,0.56
2018-03-16T14:46:31.650Z,0.48
2018-03-16T14:48:57.735Z,0.49
2018-03-16T14:51:23.795Z,0.43
2018-03-16T14:53:49.976Z,0.44
2018-03-16T14:56:16.170Z,0.49
2018-03-16T14:58:42.215Z,0.57
2018-03-16T15:01:08.321Z,0.46
2018-03-16T15:03:34.436Z,0.38
2018-03-16T15:06:00.615Z,0.42
2018-03-16T15:08:26.661Z,0.44
2018-03-16T15:10:52.740Z,0.47
2018-03-16T15:13:18.835Z,0.45
2018-03-16T15:15:44.889Z,0.50
2018-03-16T15:18:10.973Z,0.42
2018-03-16T15:20:37.147Z,0.29
2018-03-16T15:23:03.229Z,0.29
2018-03-16T15:25:29.308Z,0.36
2018-03-16T15:27:55.383Z,0.33
2018-03-16T15:30:21.498Z,0.31
2018-03-16T15:32:47.682Z,0.29
2018-03-16T15:35:13.783Z,0.25
2018-03-16T15:37:39.841Z,0.35
2018-03-16T15:40:05.881Z,0.36
2018-03-16T15:42:31.964Z,0.33
2018-03-16T15:44:58.043Z,0.28
2018-03-16T15:47:24.128Z,0.30
2018-03-16T15:49:50.326Z,0.25
2018-03-16T15:52:16.429Z,0.21
2018-03-16T15:54:42.646Z,0.21
2018-03-16T15:57:08.735Z,0.19
2018-03-16T15:59:35.050Z,0.15
2018-03-16T16:02:01.135Z,0.21
2018-03-16T16:04:27.222Z,0.21
2018-03-16T16:06:53.315Z,0.16
2018-03-16T16:09:19.405Z,0.10
2018-03-16T16:11:45.454Z,0.13
2018-03-16T16:14:11.547Z,0.08
2018-03-16T16:16:37.603Z,0.07
2018-03-16T16:19:03.722Z,0.11
2018-03-16T16:21:29.862Z,0.13
2018-03-16T16:23:55.913Z,0.05
2018-03-16T16:26:22.103Z,0.12
2018-03-16T16:28:48.236Z,0.16
2018-03-16T16:31:14.334Z,0.19
2018-03-16T16:33:40.410Z,0.09
2018-03-16T16:36:06.617Z,0.09
2018-03-16T16:38:32.740Z,0.12
2018-03-16T16:40:58.799Z,0.05
2018-03-16T16:43:24.964Z,-0.01
2018-03-16T16:45:51.045Z,-0.03
2018-03-16T16:48:17.145Z,0.00
2018-03-16T16:50:43.203Z,-0.04
2018-03-16T16:53:09.308Z,-0.07
2018-03-16T16:55:35.363Z,-0.10
2018-03-16T16:58:01.414Z,-0.19
2018-03-16T17:00:27.521Z,-0.24
2018-03-16T17:02:54.439Z,-0.17
2018-03-16T17:05:20.550Z,-0.15
2018-03-16T17:07:46.605Z,-0.23
2018-03-16T17:10:12.889Z,-0.20
2018-03-16T17:12:38.974Z,-0.29
2018-03-16T17:15:05.666Z,-0.31
2018-03-16T17:17:31.802Z,-0.29
2018-03-16T17:19:57.887Z,-0.26
2018-03-16T17:22:24.009Z,-0.21
2018-03-16T17:24:50.103Z,-0.28
2018-03-16T17:27:16.247Z,-0.33
2018-03-16T17:29:42.388Z,-0.37
2018-03-16T17:32:08.478Z,-0.37
2018-03-16T17:34:34.508Z,-0.47
2018-03-16T17:37:04.780Z,-0.43
2018-03-16T17:39:30.958Z,-0.48
2018-03-16T17:41:57.180Z,-0.42
2018-03-16T17:44:23.290Z,-0.43
2018-03-16T17:46:49.374Z,-0.43
2018-03-16T17:49:15.488Z,-0.46
2018-03-16T17:51:41.564Z,-0.49
2018-03-16T17:54:07.993Z,-0.53
2018-03-16T17:56:34.039Z,-0.48
2018-03-16T17:59:00.084Z,-0.47
2018-03-16T18:01:26.198Z,-0.52
2018-03-16T18:03:52.303Z,-0.44
2018-03-16T18:06:18.379Z,-0.48
2018-03-16T18:08:45.052Z,-0.51
2018-03-16T18:11:11.146Z,-0.59
2018-03-16T18:13:37.235Z,-0.59
2018-03-16T18:16:18.202Z,-0.58
2018-03-16T18:18:44.380Z,-0.54
2018-03-16T18:21:10.487Z,-0.57
2018-03-16T18:23:36.568Z,-0.61
2018-03-16T18:26:02.620Z,-0.57
2018-03-16T18:28:30.106Z,-0.65
2018-03-16T18:30:56.270Z,-0.65
2018-03-16T18:33:22.367Z,-0.60
2018-03-16T18:35:48.489Z,-0.61
2018-03-16T18:38:14.564Z,-0.58
2018-03-16T18:40:40.650Z,-0.64
2018-03-16T18:43:07.566Z,-0.59
2018-03-16T18:45:33.641Z,-0.66
2018-03-16T18:47:59.749Z,-0.67
2018-03-16T18:50:26.444Z,-0.70
2018-03-16T18:52:53.362Z,-0.66
2018-03-16T18:55:19.456Z,-0.70
2018-03-16T18:57:45.553Z,-0.63
2018-03-16T19:00:11.720Z,-0.66
2018-03-16T19:02:37.898Z,-0.71
2018-03-16T19:05:03.994Z,-0.76
2018-03-16T19:07:30.084Z,-0.76
2018-03-16T19:09:56.523Z,-0.79
2018-03-16T19:12:22.624Z,-0.75
2018-03-16T19:14:48.739Z,-0.89
2018-03-16T19:17:14.863Z,-0.86
2018-03-16T19:19:40.962Z,-0.82
2018-03-16T19:22:07.594Z,-0.84
2018-03-16T19:24:33.758Z,-0.96
2018-03-16T19:26:59.873Z,-0.96
2018-03-16T19:29:26.764Z,-0.87
2018-03-16T19:31:53.239Z,-1.00
2018-03-16T19:34:19.324Z,-0.97
2018-03-16T19:36:45.462Z,-1.03
2018-03-16T19:39:11.731Z,-1.07
2018-03-16T19:41:37.827Z,-1.02
2018-03-16T19:44:03.994Z,-0.98
2018-03-16T19:46:30.054Z,-1.10
2018-03-16T19:48:56.716Z,-1.05
2018-03-16T19:51:23.201Z,-1.15
2018-03-16T19:53:49.345Z,-1.15
2018-03-16T19:56:15.387Z,-1.15
2018-03-16T19:58:42.466Z,-1.15
2018-03-16T20:01:08.535Z,-1.09
2018-03-16T20:03:34.786Z,-1.09
2018-03-16T20:06:00.920Z,-1.17
2018-03-16T20:08:27.073Z,-1.14
2018-03-16T20:10:53.158Z,-1.20
2018-03-16T20:13:19.593Z,-1.21
2018-03-16T20:15:45.676Z,-1.11
2018-03-16T20:18:11.707Z,-1.14
2018-03-16T20:20:37.796Z,-1.17
2018-03-16T20:23:04.300Z,-1.20
2018-03-16T20:25:30.480Z,-1.11
2018-03-16T20:27:56.591Z,-1.20
2018-03-16T20:30:22.859Z,-1.16
2018-03-16T20:32:48.986Z,-1.12
2018-03-16T20:35:15.098Z,-1.15
2018-03-16T20:37:41.212Z,-1.18
2018-03-16T20:40:07.413Z,-1.23
2018-03-16T20:42:33.511Z,-1.22
2018-03-16T20:44:59.838Z,-1.23
2018-03-16T20:47:25.918Z,-1.15
2018-03-16T20:49:52.004Z,-1.19
2018-03-16T20:52:18.228Z,-1.17
2018-03-16T20:54:44.278Z,-1.08
2018-03-16T20:57:10.395Z,-1.13
2018-03-16T20:59:36.491Z,-1.14
2018-03-16T21:02:03.340Z,-1.21
2018-03-16T21:04:30.545Z,-1.19
2018-03-16T21:06:56.605Z,-1.21
2018-03-16T21:09:22.710Z,-1.08
2018-03-16T21:11:48.931Z,-1.16
2018-03-16T21:14:14.971Z,-1.20
2018-03-16T21:16:41.943Z,-1.24
2018-03-16T21:19:08.093Z,-1.21
2018-03-16T21:21:34.225Z,-1.30
2018-03-16T21:24:00.344Z,-1.28
2018-03-16T21:26:26.528Z,-1.32
2018-03-16T21:28:53.394Z,-1.38
2018-03-16T21:31:19.519Z,-1.36
2018-03-16T21:33:46.519Z,-1.42
2018-03-16T21:36:13.616Z,-1.46
2018-03-16T21:38:39.781Z,-1.48
2018-03-16T21:41:06.078Z,-1.53
2018-03-16T21:43:32.160Z,-1.53
2018-03-16T21:45:58.214Z,-1.59
2018-03-16T21:48:24.314Z,-1.57
2018-03-16T21:50:50.400Z,-1.59
2018-03-16T21:53:16.527Z,-1.64
2018-03-16T21:55:42.613Z,-1.60
2018-03-16T21:58:08.698Z,-1.56
2018-03-16T22:00:34.836Z,-1.59
2018-03-16T22:03:00.892Z,-1.49
2018-03-16T22:05:26.962Z,-1.51
2018-03-16T22:07:53.155Z,-1.52
2018-03-16T22:10:19.206Z,-1.51
2018-03-16T22:12:45.289Z,-1.56
2018-03-16T22:15:11.428Z,-1.59
2018-03-16T22:17:37.561Z,-1.68
2018-03-16T22:20:03.602Z,-1.66
2018-03-16T22:22:29.666Z,-1.68
2018-03-16T22:24:55.758Z,-1.67
2018-03-16T22:27:21.815Z,-1.73
2018-03-16T22:29:47.937Z,-1.77
2018-03-16T22:32:14.051Z,-1.77
2018-03-16T22:34:40.158Z,-1.77
2018-03-16T22:37:06.245Z,-1.74
2018-03-16T22:39:32.303Z,-1.77
2018-03-16T22:41:58.499Z,-1.74
2018-03-16T22:44:24.548Z,-1.80
2018-03-16T22:46:50.620Z,-1.76
2018-03-16T22:49:16.716Z,-1.78
2018-03-16T22:51:42.762Z,-1.81
2018-03-16T22:54:08.875Z,-1.81
2018-03-16T22:56:34.962Z,-1.82
2018-03-16T22:59:01.030Z,-1.82
2018-03-16T23:01:27.211Z,-1.87
2018-03-16T23:03:53.264Z,-1.88
2018-03-16T23:06:19.356Z,-1.98
2018-03-16T23:08:45.370Z,-2.04
2018-03-16T23:11:11.505Z,-2.07
2018-03-16T23:13:37.614Z,-2.03
2018-03-16T23:16:03.656Z,-2.12
2018-03-16T23:18:29.747Z,-2.12
2018-03-16T23:20:55.889Z,-2.09
2018-03-16T23:23:21.937Z,-2.18
2018-03-16T23:25:47.990Z,-2.19
2018-03-16T23:28:14.056Z,-2.20
2018-03-16T23:30:40.134Z,-2.28
2018-03-16T23:33:06.225Z,-2.29
2018-03-16T23:35:32.291Z,-2.34
2018-03-16T23:37:58.380Z,-2.36
2018-03-16T23:40:24.449Z,-2.30
2018-03-16T23:42:50.597Z,-2.35
2018-03-16T23:45:16.650Z,-2.33
2018-03-16T23:47:42.710Z,-2.39
2018-03-16T23:50:08.752Z,-2.43
2018-03-16T23:52:34.806Z,-2.44
2018-03-16T23:55:00.919Z,-2.46
2018-03-16T23:57:26.979Z,-2.51
2018-03-16T23:59:53.045Z,-2.55
